Time;durP1;ratioP1;P1;durP2;ratioP2;P2;SDS_P1;SDS_P2;PMS_P1;PMS_P2;Temp;Humidity;BMP_temperature;BMP_pressure;BME280_temperature;BME280_humidity;BME280_pressure;Samples;Min_cycle;Max_cycle;Signal;HPM_P1;HPM_P2
2023/05/23 00:00:59;;;;;;;46.45;19.92;;;14.40;91.10;;;;;;5028982;28;20052;-66
2023/05/23 00:03:26;;;;;;;41.08;18.60;;;14.40;91.50;;;;;;5046719;28;20032;-67
2023/05/23 00:05:51;;;;;;;44.50;19.08;;;14.40;91.50;;;;;;5067274;28;20127;-66
2023/05/23 00:08:17;;;;;;;43.72;18.73;;;14.40;91.60;;;;;;5045905;28;20532;-67
2023/05/23 00:10:44;;;;;;;38.20;17.00;;;14.40;91.90;;;;;;5038339;28;20124;-67
2023/05/23 00:13:13;;;;;;;44.40;18.08;;;14.40;92.00;;;;;;5052699;28;20361;-67
2023/05/23 00:15:40;;;;;;;43.97;18.40;;;14.40;92.00;;;;;;5053640;28;20456;-67
2023/05/23 00:18:07;;;;;;;38.35;17.80;;;14.30;92.20;;;;;;5056065;28;20443;-67
2023/05/23 00:20:35;;;;;;;40.85;18.23;;;14.20;92.40;;;;;;5031337;28;20040;-66
2023/05/23 00:23:02;;;;;;;38.55;17.17;;;14.20;92.70;;;;;;5045389;28;20033;-67
2023/05/23 00:25:32;;;;;;;37.90;17.85;;;14.20;93.10;;;;;;5039142;28;20033;-65
2023/05/23 00:27:58;;;;;;;;;;;14.10;93.30;;;;;;5049722;28;20032;-67
2023/05/23 00:30:24;;;;;;;33.63;16.10;;;14.10;95.30;;;;;;5049620;28;19942;-66
2023/05/23 00:32:52;;;;;;;37.60;16.60;;;14.10;93.70;;;;;;5036581;28;20496;-66
2023/05/23 00:35:18;;;;;;;34.20;16.23;;;14.10;93.80;;;;;;5030913;28;20041;-66
2023/05/23 00:37:44;;;;;;;38.53;16.02;;;14.10;93.90;;;;;;5044582;28;20033;-67
2023/05/23 00:40:10;;;;;;;32.67;16.77;;;14.10;94.00;;;;;;5049889;28;20527;-67
2023/05/23 00:42:36;;;;;;;29.45;14.98;;;14.10;94.20;;;;;;5042848;28;20495;-67
2023/05/23 00:45:01;;;;;;;33.97;16.25;;;14.10;94.40;;;;;;5046323;28;20107;-68
2023/05/23 00:47:28;;;;;;;30.15;16.45;;;14.10;94.60;;;;;;5043962;28;20143;-67
2023/05/23 00:49:53;;;;;;;34.03;16.52;;;14.10;94.70;;;;;;5042374;28;20048;-67
2023/05/23 00:52:19;;;;;;;30.95;15.82;;;14.10;95.00;;;;;;5042484;28;20033;-67
2023/05/23 00:54:45;;;;;;;28.73;15.38;;;14.00;95.20;;;;;;5033541;28;20029;-67
2023/05/23 00:57:10;;;;;;;30.95;16.30;;;14.00;95.50;;;;;;5049541;28;20137;-67
2023/05/23 00:59:37;;;;;;;32.10;14.85;;;14.00;95.70;;;;;;5054524;28;20034;-66
2023/05/23 01:02:02;;;;;;;33.05;15.75;;;14.00;95.90;;;;;;5042595;28;20506;-66
2023/05/23 01:04:28;;;;;;;30.50;15.80;;;14.00;96.20;;;;;;5047218;28;20083;-66
2023/05/23 01:06:54;;;;;;;30.83;14.50;;;14.00;97.00;;;;;;5047843;28;20464;-66
2023/05/23 01:09:22;;;;;;;24.77;13.55;;;13.90;97.90;;;;;;5043473;28;20044;-65
2023/05/23 01:12:49;;;;;;;23.70;12.20;;;13.90;98.40;;;;;;5036969;28;20068;-66
2023/05/23 01:15:18;;;;;;;26.10;12.13;;;14.00;99.90;;;;;;5035739;28;20405;-66
2023/05/23 01:17:49;;;;;;;23.05;11.70;;;14.00;99.00;;;;;;5041621;28;20076;-65
2023/05/23 01:20:21;;;;;;;21.58;12.63;;;13.90;98.90;;;;;;5048642;28;20553;-66
2023/05/23 01:23:13;;;;;;;25.30;13.05;;;13.90;98.80;;;;;;5037231;28;20094;-66
2023/05/23 01:25:58;;;;;;;25.88;13.77;;;13.90;99.70;;;;;;5044779;28;20047;-65
2023/05/23 01:28:29;;;;;;;24.92;12.48;;;13.90;99.20;;;;;;5032785;28;20052;-66
2023/05/23 01:30:57;;;;;;;26.73;15.05;;;13.90;98.80;;;;;;5045797;28;20435;-65
2023/05/23 01:33:24;;;;;;;29.08;14.75;;;13.90;98.70;;;;;;5040757;28;20040;-67
2023/05/23 01:35:50;;;;;;;29.33;15.63;;;13.90;98.80;;;;;;5046784;28;20480;-66
2023/05/23 01:38:16;;;;;;;29.83;15.60;;;13.90;98.90;;;;;;5038554;28;20361;-66
2023/05/23 01:40:42;;;;;;;31.67;15.85;;;13.90;98.70;;;;;;5047047;28;20045;-67
2023/05/23 01:43:08;;;;;;;27.58;15.70;;;13.90;98.70;;;;;;5046595;28;20033;-65
2023/05/23 01:45:34;;;;;;;27.52;16.60;;;13.90;98.80;;;;;;5046442;28;20037;-66
2023/05/23 01:48:01;;;;;;;25.85;15.60;;;13.90;98.80;;;;;;5036847;28;20135;-66
2023/05/23 01:50:27;;;;;;;25.17;13.95;;;13.80;98.60;;;;;;5031519;28;20052;-65
2023/05/23 01:52:54;;;;;;;26.67;14.40;;;13.80;98.90;;;;;;5029322;28;20041;-66
2023/05/23 01:55:23;;;;;;;22.35;13.40;;;13.80;98.50;;;;;;5045844;28;20052;-65
2023/05/23 01:57:54;;;;;;;27.35;13.75;;;13.80;98.40;;;;;;5044495;28;20045;-65
2023/05/23 02:00:20;;;;;;;21.38;12.10;;;13.70;98.70;;;;;;5041841;28;20411;-65
2023/05/23 02:02:46;;;;;;;23.98;12.63;;;13.80;98.40;;;;;;5055122;28;20075;-66
2023/05/23 02:05:12;;;;;;;19.98;11.05;;;13.70;98.50;;;;;;5051717;28;20080;-65
2023/05/23 02:07:37;;;;;;;16.50;10.68;;;13.70;98.40;;;;;;5043951;28;20033;-66
2023/05/23 02:10:03;;;;;;;16.73;9.77;;;13.70;98.30;;;;;;5062676;28;20489;-66
2023/05/23 02:12:29;;;;;;;15.48;10.18;;;13.70;98.50;;;;;;5050149;28;20094;-66
2023/05/23 02:14:55;;;;;;;17.23;9.80;;;13.60;98.50;;;;;;5045396;28;20532;-66
2023/05/23 02:17:21;;;;;;;19.48;9.45;;;13.60;98.50;;;;;;5038370;28;20051;-66
2023/05/23 02:19:47;;;;;;;15.13;8.63;;;13.60;98.30;;;;;;5036842;28;20527;-66
2023/05/23 02:22:13;;;;;;;18.80;8.77;;;13.60;98.40;;;;;;5041753;28;20110;-66
2023/05/23 02:24:39;;;;;;;18.60;9.35;;;13.60;98.50;;;;;;5045523;28;20404;-66
2023/05/23 02:27:05;;;;;;;17.30;8.93;;;13.50;98.30;;;;;;5049062;28;20075;-65
2023/05/23 02:29:30;;;;;;;19.15;9.13;;;13.50;98.20;;;;;;5026188;28;20503;-65
2023/05/23 02:31:56;;;;;;;18.20;9.45;;;13.50;98.20;;;;;;5039007;28;20111;-66
2023/05/23 02:34:21;;;;;;;24.33;8.45;;;13.50;98.30;;;;;;5042509;28;20041;-66
2023/05/23 02:36:47;;;;;;;16.38;8.13;;;13.50;98.20;;;;;;5036702;28;20053;-67
2023/05/23 02:39:12;;;;;;;20.92;8.88;;;13.50;98.20;;;;;;5057990;28;20124;-66
2023/05/23 02:41:38;;;;;;;19.10;8.45;;;13.40;98.30;;;;;;5045762;28;20036;-65
2023/05/23 02:44:04;;;;;;;15.65;7.85;;;13.40;98.20;;;;;;5047674;28;20341;-66
2023/05/23 02:46:30;;;;;;;24.10;8.73;;;13.30;98.10;;;;;;5044030;28;20064;-66
2023/05/23 02:48:55;;;;;;;21.50;8.70;;;13.30;98.00;;;;;;5026581;28;20032;-66
2023/05/23 02:51:21;;;;;;;20.02;8.43;;;13.30;98.10;;;;;;5040485;28;20049;-66
2023/05/23 02:53:46;;;;;;;21.65;9.07;;;13.30;98.10;;;;;;5043634;28;20064;-65
2023/05/23 02:56:12;;;;;;;23.27;9.20;;;13.20;98.00;;;;;;5037552;28;20040;-66
2023/05/23 02:58:38;;;;;;;22.88;8.50;;;13.20;98.00;;;;;;5046041;28;20743;-66
2023/05/23 03:01:04;;;;;;;20.70;8.70;;;13.20;97.90;;;;;;5048443;28;20423;-66
2023/05/23 03:03:30;;;;;;;19.48;8.23;;;13.20;97.80;;;;;;5042271;28;20064;-65
2023/05/23 03:06:02;;;;;;;14.88;6.97;;;13.20;97.80;;;;;;5046751;28;20064;-66
2023/05/23 03:08:27;;;;;;;18.17;6.78;;;13.20;97.90;;;;;;5040713;28;20041;-66
2023/05/23 03:10:53;;;;;;;17.27;7.05;;;13.10;97.80;;;;;;5049505;28;20087;-66
2023/05/23 03:13:18;;;;;;;15.02;5.80;;;13.10;97.80;;;;;;5038303;28;20076;-65
2023/05/23 03:15:45;;;;;;;14.07;4.85;;;13.00;97.90;;;;;;5048653;28;20040;-66
2023/05/23 03:18:11;;;;;;;10.43;4.82;;;13.00;98.00;;;;;;5039804;28;20048;-66
2023/05/23 03:20:37;;;;;;;12.88;5.60;;;12.90;98.20;;;;;;5050719;28;20068;-66
2023/05/23 03:23:02;;;;;;;12.07;5.32;;;12.90;98.60;;;;;;5049364;28;20087;-65
2023/05/23 03:25:28;;;;;;;10.27;4.22;;;12.80;99.20;;;;;;5040252;28;20029;-65
2023/05/23 03:27:53;;;;;;;8.63;4.25;;;12.70;99.30;;;;;;5043777;28;20119;-67
2023/05/23 03:30:19;;;;;;;9.05;4.60;;;12.70;99.60;;;;;;5048929;28;20195;-64
2023/05/23 03:32:46;;;;;;;9.93;4.40;;;12.70;99.80;;;;;;5043461;28;20044;-65
2023/05/23 03:35:11;;;;;;;13.10;5.80;;;12.60;99.90;;;;;;5045888;28;20036;-64
2023/05/23 03:37:37;;;;;;;19.02;7.22;;;12.60;99.90;;;;;;5046706;28;20048;-66
2023/05/23 03:40:03;;;;;;;13.88;6.03;;;12.50;99.90;;;;;;5047758;28;20560;-63
2023/05/23 03:42:29;;;;;;;16.67;7.00;;;12.50;99.90;;;;;;5036606;28;20061;-64
2023/05/23 03:44:54;;;;;;;19.10;7.13;;;12.40;99.90;;;;;;5045706;28;20365;-65
2023/05/23 03:47:20;;;;;;;21.45;8.18;;;12.40;99.90;;;;;;5047551;28;20338;-63
2023/05/23 03:49:45;;;;;;;18.00;7.25;;;12.40;99.90;;;;;;5044198;28;20133;-65
2023/05/23 03:52:11;;;;;;;21.58;8.43;;;12.30;99.90;;;;;;5052015;28;20052;-65
2023/05/23 03:54:37;;;;;;;18.10;6.95;;;12.40;99.90;;;;;;5049300;28;20099;-64
2023/05/23 03:57:02;;;;;;;15.88;7.15;;;12.30;99.90;;;;;;5050274;28;20097;-63
2023/05/23 03:59:28;;;;;;;18.65;7.80;;;12.40;99.90;;;;;;5049394;28;20036;-65
2023/05/23 04:01:57;;;;;;;20.90;7.32;;;12.30;99.90;;;;;;5030993;28;20171;-65
2023/05/23 04:04:23;;;;;;;16.20;7.20;;;12.40;99.90;;;;;;5056019;28;20098;-65
2023/05/23 04:06:49;;;;;;;17.98;6.75;;;12.40;99.90;;;;;;5039135;28;20120;-65
2023/05/23 04:09:15;;;;;;;20.33;7.60;;;12.30;99.90;;;;;;5043692;28;20044;-64
2023/05/23 04:11:42;;;;;;;20.83;6.85;;;12.30;99.90;;;;;;5044307;28;20456;-63
2023/05/23 04:14:08;;;;;;;22.70;6.82;;;12.30;99.90;;;;;;5038533;28;20454;-65
2023/05/23 04:16:34;;;;;;;20.23;6.18;;;12.30;99.90;;;;;;5046934;28;20045;-62
2023/05/23 04:19:01;;;;;;;16.73;6.20;;;12.30;99.90;;;;;;5049539;28;20044;-64
2023/05/23 04:21:27;;;;;;;16.92;5.88;;;12.30;99.90;;;;;;5054454;28;20048;-64
2023/05/23 04:23:52;;;;;;;13.13;5.32;;;12.30;99.90;;;;;;5041090;28;20045;-65
2023/05/23 04:26:19;;;;;;;16.10;5.55;;;12.40;99.90;;;;;;5052959;28;20051;-64
2023/05/23 04:28:45;;;;;;;13.07;5.18;;;12.30;99.90;;;;;;5054593;28;20041;-63
2023/05/23 04:31:11;;;;;;;14.35;5.65;;;12.30;99.90;;;;;;5047500;28;20098;-65
2023/05/23 04:33:37;;;;;;;17.33;5.53;;;12.40;99.90;;;;;;5030987;28;20044;-65
2023/05/23 04:36:03;;;;;;;15.60;5.95;;;12.30;99.90;;;;;;5049575;28;20433;-64
2023/05/23 04:38:29;;;;;;;15.02;5.97;;;12.30;99.90;;;;;;5042560;28;20045;-64
2023/05/23 04:40:56;;;;;;;13.30;5.63;;;12.30;99.90;;;;;;5043174;28;20195;-64
2023/05/23 04:43:25;;;;;;;18.35;5.90;;;12.30;99.90;;;;;;5045013;28;20048;-67
2023/05/23 04:45:53;;;;;;;17.35;5.70;;;12.30;99.90;;;;;;5044846;28;20147;-63
2023/05/23 04:48:20;;;;;;;16.23;5.75;;;12.30;99.90;;;;;;5046942;28;20527;-66
2023/05/23 04:50:47;;;;;;;15.43;6.30;;;12.30;99.90;;;;;;5044952;28;20124;-64
2023/05/23 04:53:13;;;;;;;16.02;5.90;;;12.30;99.90;;;;;;5045447;28;20133;-63
2023/05/23 04:55:38;;;;;;;19.67;5.03;;;12.30;99.90;;;;;;5043481;28;20439;-65
2023/05/23 04:58:04;;;;;;;18.63;5.65;;;12.30;99.90;;;;;;5044064;28;20067;-65
2023/05/23 05:00:29;;;;;;;14.30;4.57;;;12.30;99.90;;;;;;5045623;28;20044;-65
2023/05/23 05:02:55;;;;;;;12.98;4.97;;;12.30;99.90;;;;;;5040691;28;20041;-66
2023/05/23 05:05:20;;;;;;;16.15;5.20;;;12.30;99.90;;;;;;5044966;28;20448;-64
2023/05/23 05:07:46;;;;;;;13.27;3.95;;;12.30;99.90;;;;;;5055957;28;20044;-64
2023/05/23 05:10:18;;;;;;;14.15;4.53;;;12.40;99.90;;;;;;5037139;28;20187;-64
2023/05/23 05:12:48;;;;;;;12.95;4.00;;;12.30;99.90;;;;;;5036701;28;20086;-65
2023/05/23 05:15:16;;;;;;;;;;;12.40;99.90;;;;;;5033179;28;20041;-64
2023/05/23 05:17:42;;;;;;;11.13;3.97;;;12.40;99.90;;;;;;5034333;28;19982;-66
2023/05/23 05:20:09;;;;;;;8.77;3.70;;;12.40;99.90;;;;;;5044459;28;20033;-68
2023/05/23 05:22:36;;;;;;;11.02;4.03;;;12.40;99.70;;;;;;5044371;28;20041;-66
2023/05/23 05:25:02;;;;;;;12.05;4.45;;;12.40;99.50;;;;;;5034013;28;20126;-66
2023/05/23 05:27:28;;;;;;;16.13;4.45;;;12.40;99.40;;;;;;5055076;28;20045;-66
2023/05/23 05:29:57;;;;;;;21.42;4.80;;;12.40;99.40;;;;;;5046466;28;20438;-64
2023/05/23 05:32:23;;;;;;;14.65;4.60;;;12.30;99.20;;;;;;5037536;28;20037;-65
2023/05/23 05:34:49;;;;;;;12.65;5.15;;;12.30;99.50;;;;;;5045606;28;20152;-67
2023/05/23 05:37:15;;;;;;;18.02;5.05;;;12.30;99.10;;;;;;5031893;28;20503;-66
2023/05/23 05:39:41;;;;;;;16.10;5.05;;;12.30;99.00;;;;;;5044840;28;20108;-65
2023/05/23 05:42:06;;;;;;;12.50;5.22;;;12.30;99.00;;;;;;5042845;28;20563;-65
2023/05/23 05:44:32;;;;;;;12.98;5.13;;;12.30;99.20;;;;;;5034130;28;20056;-64
2023/05/23 05:46:57;;;;;;;14.50;5.28;;;12.30;98.90;;;;;;5042168;28;20496;-66
2023/05/23 05:49:23;;;;;;;14.60;5.68;;;12.30;98.80;;;;;;5032888;28;21389;-66
2023/05/23 05:51:49;;;;;;;16.73;6.32;;;12.30;98.80;;;;;;5045013;28;20033;-66
2023/05/23 05:54:14;;;;;;;14.70;5.85;;;12.20;98.80;;;;;;5044693;28;20132;-63
2023/05/23 05:56:41;;;;;;;17.60;6.60;;;12.10;98.70;;;;;;5039919;28;20045;-64
2023/05/23 05:59:06;;;;;;;18.95;5.93;;;12.10;98.60;;;;;;5039311;28;20044;-65
2023/05/23 06:01:33;;;;;;;14.25;5.35;;;12.20;98.70;;;;;;5041583;28;20091;-64
2023/05/23 06:03:59;;;;;;;12.43;5.15;;;12.10;98.60;;;;;;5038054;28;20468;-65
2023/05/23 06:06:25;;;;;;;13.57;5.03;;;12.00;98.30;;;;;;5020366;28;20368;-65
2023/05/23 06:08:50;;;;;;;16.40;5.88;;;12.00;98.30;;;;;;5041233;28;20037;-64
2023/05/23 06:11:16;;;;;;;14.93;5.72;;;12.00;98.00;;;;;;5047997;28;20032;-65
2023/05/23 06:13:42;;;;;;;14.90;5.65;;;12.00;98.00;;;;;;5046918;28;20769;-65
2023/05/23 06:16:07;;;;;;;13.02;5.18;;;12.00;97.90;;;;;;5046701;28;20048;-67
2023/05/23 06:18:33;;;;;;;16.77;5.35;;;12.00;97.60;;;;;;5043039;28;20029;-66
2023/05/23 06:20:59;;;;;;;11.98;4.90;;;12.00;97.40;;;;;;5046112;28;20136;-64
2023/05/23 06:23:24;;;;;;;17.65;6.05;;;12.00;97.40;;;;;;5028944;28;20045;-66
2023/05/23 06:25:50;;;;;;;13.10;5.80;;;12.00;97.20;;;;;;5047849;28;20242;-65
2023/05/23 06:28:16;;;;;;;16.27;5.45;;;12.00;97.20;;;;;;5045423;28;20507;-66
2023/05/23 06:30:41;;;;;;;17.23;4.97;;;12.00;97.10;;;;;;5046167;28;20037;-65
2023/05/23 06:33:07;;;;;;;12.13;4.85;;;12.10;97.00;;;;;;5045765;28;20032;-65
2023/05/23 06:35:32;;;;;;;12.55;4.10;;;12.00;96.70;;;;;;5045874;28;20037;-66
2023/05/23 06:37:58;;;;;;;12.98;4.22;;;12.00;96.50;;;;;;5046473;28;20090;-69
2023/05/23 06:40:24;;;;;;;12.43;4.28;;;12.00;96.10;;;;;;5047213;28;20495;-66
2023/05/23 06:42:49;;;;;;;10.77;3.85;;;12.00;96.10;;;;;;5046746;28;20025;-67
2023/05/23 06:45:15;;;;;;;12.13;4.22;;;12.00;96.00;;;;;;5047409;28;20094;-68
2023/05/23 06:47:42;;;;;;;10.50;3.42;;;12.00;95.90;;;;;;5028794;28;20060;-67
2023/05/23 06:50:08;;;;;;;10.68;3.20;;;12.00;95.60;;;;;;5048909;28;20041;-66
2023/05/23 06:52:34;;;;;;;9.93;3.33;;;12.10;95.10;;;;;;5042600;28;20408;-65
2023/05/23 06:54:59;;;;;;;10.95;3.70;;;12.10;95.00;;;;;;5031497;28;20040;-66
2023/05/23 06:57:25;;;;;;;10.55;3.20;;;12.10;94.90;;;;;;5047813;28;20171;-67
2023/05/23 06:59:50;;;;;;;13.75;3.53;;;12.20;94.60;;;;;;5048474;28;20127;-66
2023/05/23 07:02:16;;;;;;;11.15;3.40;;;12.20;94.50;;;;;;5043592;28;20326;-66
2023/05/23 07:04:42;;;;;;;11.38;4.03;;;12.20;94.30;;;;;;5045479;28;20154;-66
2023/05/23 07:07:07;;;;;;;11.77;3.35;;;12.30;94.20;;;;;;5042911;28;20537;-66
2023/05/23 07:09:33;;;;;;;12.07;3.17;;;12.30;93.90;;;;;;5048731;28;20044;-67
2023/05/23 07:11:58;;;;;;;12.88;4.30;;;12.30;93.70;;;;;;5044795;28;20105;-67
2023/05/23 07:14:24;;;;;;;15.65;3.95;;;12.40;93.60;;;;;;5047528;28;20086;-67
2023/05/23 07:16:50;;;;;;;13.27;3.60;;;12.50;93.60;;;;;;5046940;28;20044;-67
2023/05/23 07:19:15;;;;;;;9.05;3.75;;;12.60;93.50;;;;;;5038882;28;20052;-67
2023/05/23 07:21:41;;;;;;;11.25;3.08;;;12.60;93.40;;;;;;5050228;28;20056;-68
2023/05/23 07:24:06;;;;;;;17.42;4.00;;;12.60;92.90;;;;;;5047058;28;20403;-67
2023/05/23 07:26:32;;;;;;;12.52;3.90;;;12.60;92.60;;;;;;5044546;28;20150;-67
2023/05/23 07:28:58;;;;;;;15.45;3.63;;;12.80;91.60;;;;;;5030560;28;20037;-67
2023/05/23 07:31:23;;;;;;;12.38;3.75;;;12.80;91.30;;;;;;5047659;28;20047;-67
2023/05/23 07:33:49;;;;;;;11.80;3.47;;;12.90;90.50;;;;;;5046999;28;20147;-65
2023/05/23 07:36:15;;;;;;;18.85;3.97;;;12.90;89.80;;;;;;5046626;28;20037;-66
2023/05/23 07:38:40;;;;;;;11.90;3.28;;;12.90;89.20;;;;;;5043241;28;20067;-67
2023/05/23 07:41:06;;;;;;;14.35;3.80;;;12.90;89.50;;;;;;5047628;28;20454;-66
2023/05/23 07:43:31;;;;;;;14.02;3.42;;;12.90;88.90;;;;;;5048241;28;20037;-68
2023/05/23 07:45:57;;;;;;;15.30;3.72;;;12.90;88.30;;;;;;5047946;28;20132;-66
2023/05/23 07:48:23;;;;;;;14.45;3.45;;;12.90;88.00;;;;;;5048041;28;20044;-66
2023/05/23 07:50:48;;;;;;;12.68;3.58;;;12.80;87.50;;;;;;5049026;28;20040;-67
2023/05/23 07:53:14;;;;;;;12.10;3.30;;;12.70;86.50;;;;;;5028383;28;20409;-68
2023/05/23 07:55:40;;;;;;;13.02;3.38;;;12.80;86.20;;;;;;5045881;28;20080;-66
2023/05/23 07:58:06;;;;;;;17.08;3.65;;;12.90;84.80;;;;;;5050033;28;20381;-66
2023/05/23 08:00:31;;;;;;;15.00;3.55;;;12.90;84.70;;;;;;5045579;28;20059;-67
2023/05/23 08:02:57;;;;;;;16.40;3.28;;;13.00;84.20;;;;;;5050256;28;20040;-66
2023/05/23 08:05:23;;;;;;;10.68;2.97;;;13.20;83.30;;;;;;5039374;28;20097;-66
2023/05/23 08:07:48;;;;;;;14.80;3.60;;;13.10;82.40;;;;;;5035037;28;20037;-65
2023/05/23 08:10:14;;;;;;;15.75;2.90;;;13.20;81.90;;;;;;5047792;28;20079;-67
2023/05/23 08:12:40;;;;;;;10.77;3.38;;;13.30;82.40;;;;;;5046100;28;20422;-66
2023/05/23 08:15:06;;;;;;;16.02;3.55;;;13.30;81.80;;;;;;5049472;28;20140;-67
2023/05/23 08:17:32;;;;;;;14.40;3.47;;;13.40;81.70;;;;;;5045797;28;20080;-64
2023/05/23 08:19:59;;;;;;;17.50;3.40;;;13.60;81.30;;;;;;5047533;28;20068;-67
2023/05/23 08:22:25;;;;;;;17.38;3.67;;;13.60;80.30;;;;;;5048177;28;20310;-67
2023/05/23 08:24:50;;;;;;;15.45;3.80;;;13.70;79.90;;;;;;5047531;28;20041;-66
2023/05/23 08:27:16;;;;;;;12.32;3.13;;;13.80;80.10;;;;;;5045165;28;20037;-66
2023/05/23 08:29:43;;;;;;;13.70;3.35;;;13.80;79.30;;;;;;5049434;28;20040;-68
2023/05/23 08:32:08;;;;;;;11.98;3.03;;;14.00;79.00;;;;;;5029267;28;20081;-67
2023/05/23 08:34:34;;;;;;;8.02;2.80;;;14.10;78.30;;;;;;5047148;28;20083;-65
2023/05/23 08:37:00;;;;;;;14.85;3.28;;;14.30;77.60;;;;;;5041327;28;20551;-67
2023/05/23 08:39:25;;;;;;;10.27;3.58;;;14.50;77.40;;;;;;5042644;28;20472;-64
2023/05/23 08:41:51;;;;;;;13.93;2.97;;;14.70;76.40;;;;;;5055238;28;20521;-67
2023/05/23 08:44:17;;;;;;;15.15;2.75;;;14.80;75.50;;;;;;5055642;28;20033;-67
2023/05/23 08:46:46;;;;;;;12.13;3.42;;;15.00;75.30;;;;;;5049897;28;20057;-68
2023/05/23 08:49:16;;;;;;;14.13;3.53;;;15.00;75.00;;;;;;5058298;28;20045;-67
2023/05/23 08:51:42;;;;;;;13.10;3.10;;;14.90;75.40;;;;;;5050419;28;20097;-68
2023/05/23 08:54:12;;;;;;;17.58;3.80;;;15.00;75.30;;;;;;5042021;28;20037;-67
2023/05/23 08:56:39;;;;;;;15.43;3.67;;;15.20;75.10;;;;;;5058994;28;20043;-65
2023/05/23 08:59:07;;;;;;;9.70;3.05;;;15.30;74.30;;;;;;5034155;28;20084;-66
2023/05/23 09:01:34;;;;;;;15.07;3.25;;;15.50;72.10;;;;;;5048339;28;20036;-65
2023/05/23 09:04:03;;;;;;;14.40;3.13;;;15.80;72.50;;;;;;5047478;28;20453;-66
2023/05/23 09:06:29;;;;;;;13.13;3.70;;;16.30;70.90;;;;;;5051154;28;20496;-65
2023/05/23 09:08:55;;;;;;;11.07;3.35;;;16.50;68.90;;;;;;5040808;28;20041;-67
2023/05/23 09:11:23;;;;;;;12.13;3.20;;;16.40;69.50;;;;;;5045435;28;20377;-67
2023/05/23 09:13:48;;;;;;;14.23;2.83;;;16.20;69.40;;;;;;5048433;28;20045;-67
2023/05/23 09:16:16;;;;;;;10.70;2.78;;;15.90;69.60;;;;;;5048555;28;20060;-67
2023/05/23 09:18:43;;;;;;;15.13;3.45;;;15.80;69.00;;;;;;5065991;28;20044;-68
2023/05/23 09:21:10;;;;;;;13.30;3.33;;;16.00;68.10;;;;;;5065203;28;20051;-64
2023/05/23 09:23:40;;;;;;;12.85;3.17;;;16.00;68.90;;;;;;5040269;28;20093;-63
2023/05/23 09:26:08;;;;;;;12.75;2.80;;;15.80;67.50;;;;;;5044631;28;20041;-68
2023/05/23 09:28:35;;;;;;;16.52;3.25;;;15.80;67.70;;;;;;5046943;28;20045;-67
2023/05/23 09:31:06;;;;;;;12.40;3.05;;;16.20;67.60;;;;;;5047183;28;20132;-67
2023/05/23 09:33:44;;;;;;;12.52;3.17;;;16.70;65.30;;;;;;5044272;28;20045;-66
2023/05/23 09:36:10;;;;;;;14.73;3.58;;;17.20;60.80;;;;;;5045928;28;20059;-67
2023/05/23 09:38:40;;;;;;;10.27;2.78;;;17.30;64.60;;;;;;5039224;28;20032;-67
2023/05/23 09:41:06;;;;;;;9.52;2.75;;;16.80;61.90;;;;;;5058621;28;20075;-65
2023/05/23 09:43:32;;;;;;;10.65;2.70;;;16.60;64.40;;;;;;5047975;28;20071;-67
2023/05/23 09:46:10;;;;;;;12.13;3.00;;;16.40;64.40;;;;;;5068650;28;20057;-66
2023/05/23 09:48:36;;;;;;;14.23;2.90;;;16.20;62.70;;;;;;5046382;28;20128;-65
2023/05/23 09:51:06;;;;;;;14.32;2.90;;;16.30;64.80;;;;;;5044441;28;20033;-67
2023/05/23 09:53:32;;;;;;;10.90;2.70;;;16.30;64.00;;;;;;5046730;28;20144;-64
2023/05/23 09:56:02;;;;;;;11.38;2.72;;;16.80;63.20;;;;;;5054418;28;20124;-67
2023/05/23 09:58:31;;;;;;;17.30;3.65;;;17.40;61.60;;;;;;5035817;28;20040;-68
2023/05/23 10:01:02;;;;;;;9.63;2.70;;;17.60;61.60;;;;;;5049143;28;20071;-68
2023/05/23 10:03:50;;;;;;;13.77;3.15;;;18.50;60.20;;;;;;5050177;28;20105;-67
2023/05/23 10:07:00;;;;;;;14.85;3.00;;;18.40;55.60;;;;;;5049738;28;20068;-69
2023/05/23 10:09:30;;;;;;;8.75;3.30;;;17.80;54.70;;;;;;5044082;28;20207;-68
2023/05/23 10:11:59;;;;;;;10.18;3.13;;;17.70;60.40;;;;;;5052849;28;20073;-68
2023/05/23 10:14:28;;;;;;;10.27;2.90;;;18.40;60.00;;;;;;5042980;28;20208;-69
2023/05/23 10:17:06;;;;;;;10.43;3.08;;;18.50;58.80;;;;;;5050337;28;20040;-69
2023/05/23 10:19:39;;;;;;;12.82;2.85;;;18.80;55.70;;;;;;5045713;28;20443;-68
2023/05/23 10:22:08;;;;;;;11.95;2.60;;;18.50;53.50;;;;;;5048205;28;20075;-70
2023/05/23 10:24:35;;;;;;;8.73;2.60;;;18.10;57.60;;;;;;5049735;28;20039;-69
2023/05/23 10:27:01;;;;;;;11.68;3.53;;;18.00;57.40;;;;;;5050764;28;20131;-69
2023/05/23 10:29:28;;;;;;;10.02;3.00;;;17.90;58.00;;;;;;5051447;28;20133;-69
2023/05/23 10:31:55;;;;;;;8.43;2.70;;;17.70;57.20;;;;;;5049901;28;20463;-68
2023/05/23 10:34:49;;;;;;;10.10;2.80;;;17.50;58.20;;;;;;5051663;28;20427;-68
2023/05/23 10:37:55;;;;;;;8.10;2.10;;;17.30;55.10;;;;;;5030837;28;20492;-67
2023/05/23 10:40:20;;;;;;;10.77;2.88;;;16.90;54.70;;;;;;5052908;28;20127;-69
2023/05/23 10:42:59;;;;;;;10.45;2.60;;;16.70;59.30;;;;;;5040671;28;20598;-69
2023/05/23 10:45:25;;;;;;;13.85;2.63;;;16.60;58.50;;;;;;5031945;28;20038;-65
2023/05/23 10:47:51;;;;;;;10.45;2.60;;;16.50;59.20;;;;;;5048418;28;20133;-67
2023/05/23 10:50:35;;;;;;;9.43;2.67;;;16.50;58.80;;;;;;5051863;28;20095;-68
2023/05/23 10:53:03;;;;;;;14.60;2.70;;;16.60;57.40;;;;;;5043168;28;20132;-70
2023/05/23 10:55:35;;;;;;;8.77;2.35;;;16.60;59.70;;;;;;5049622;28;20052;-68
2023/05/23 10:58:18;;;;;;;7.82;2.15;;;16.80;57.60;;;;;;5047806;28;20052;-70
2023/05/23 11:00:53;;;;;;;8.93;2.67;;;17.10;56.80;;;;;;5050319;28;20044;-69
2023/05/23 11:03:45;;;;;;;9.52;2.60;;;17.20;56.90;;;;;;5032046;28;20070;-69
2023/05/23 11:06:28;;;;;;;8.75;3.03;;;17.10;56.00;;;;;;5043745;28;20067;-69
2023/05/23 11:09:02;;;;;;;13.25;2.75;;;16.90;55.40;;;;;;5045367;28;20512;-65
2023/05/23 11:12:02;;;;;;;12.27;2.80;;;17.00;56.50;;;;;;5048324;28;20037;-68
2023/05/23 11:14:48;;;;;;;9.13;2.38;;;17.10;55.50;;;;;;5052294;28;20052;-69
2023/05/23 11:17:17;;;;;;;9.95;2.65;;;17.10;54.80;;;;;;5049087;28;20049;-70
2023/05/23 11:19:59;;;;;;;9.15;2.15;;;17.20;57.10;;;;;;5049208;28;20122;-70
2023/05/23 11:22:30;;;;;;;9.45;2.22;;;17.40;53.20;;;;;;5047179;28;20179;-68
2023/05/23 11:24:57;;;;;;;9.88;2.50;;;17.40;54.60;;;;;;5054032;28;20033;-68
2023/05/23 11:27:39;;;;;;;12.80;2.88;;;17.40;55.70;;;;;;5039796;28;20124;-69
2023/05/23 11:30:16;;;;;;;11.85;2.63;;;17.50;54.00;;;;;;5047543;28;20504;-65
2023/05/23 11:32:53;;;;;;;9.07;2.65;;;17.50;53.00;;;;;;5045516;28;20037;-67
2023/05/23 11:35:20;;;;;;;9.68;2.35;;;17.40;52.70;;;;;;5046285;28;20491;-69
2023/05/23 11:37:46;;;;;;;13.00;2.42;;;17.40;55.00;;;;;;5028130;28;20083;-69
2023/05/23 11:40:25;;;;;;;9.98;2.35;;;17.40;55.00;;;;;;5051872;28;20094;-69
2023/05/23 11:42:51;;;;;;;8.73;2.40;;;17.40;53.70;;;;;;5037705;28;20045;-69
2023/05/23 11:45:21;;;;;;;10.30;2.33;;;17.40;55.40;;;;;;5069827;28;20372;-68
2023/05/23 11:47:47;;;;;;;12.07;2.63;;;17.40;54.70;;;;;;5064286;28;20053;-70
2023/05/23 11:50:13;;;;;;;6.60;2.13;;;17.40;55.30;;;;;;5059509;28;20049;-69
2023/05/23 11:52:39;;;;;;;11.30;2.17;;;17.50;55.10;;;;;;5057070;28;20064;-69
2023/05/23 11:55:06;;;;;;;9.60;2.85;;;17.30;54.50;;;;;;5062680;28;20618;-69
2023/05/23 11:57:32;;;;;;;9.10;2.20;;;17.10;54.50;;;;;;5050849;28;20060;-67
2023/05/23 11:59:57;;;;;;;10.40;2.40;;;17.00;55.40;;;;;;5033129;28;20368;-67
2023/05/23 12:02:27;;;;;;;9.73;2.75;;;17.10;55.50;;;;;;5051500;28;20136;-69
2023/05/23 12:04:53;;;;;;;11.05;2.13;;;17.10;54.80;;;;;;5053458;28;20040;-69
2023/05/23 12:07:19;;;;;;;10.93;2.38;;;17.40;54.70;;;;;;5067440;28;20135;-69
2023/05/23 12:09:45;;;;;;;8.07;2.15;;;17.50;54.50;;;;;;5068358;28;20052;-66
2023/05/23 12:12:12;;;;;;;12.15;2.40;;;17.30;54.50;;;;;;5060893;28;20045;-68
2023/05/23 12:14:43;;;;;;;10.52;2.42;;;17.20;54.30;;;;;;5048273;28;20445;-70
2023/05/23 12:17:11;;;;;;;10.32;2.30;;;17.20;54.20;;;;;;5057307;28;20045;-69
2023/05/23 12:19:36;;;;;;;11.57;2.38;;;17.20;53.90;;;;;;5064231;28;20422;-69
2023/05/23 12:22:06;;;;;;;7.80;2.13;;;17.30;53.60;;;;;;5069712;28;20043;-69
2023/05/23 12:24:32;;;;;;;8.93;2.30;;;17.70;51.90;;;;;;5067749;28;20098;-67
2023/05/23 12:26:59;;;;;;;9.70;2.55;;;18.00;52.20;;;;;;5061201;28;20140;-69
2023/05/23 12:29:33;;;;;;;11.02;2.60;;;17.90;52.30;;;;;;5068909;28;20502;-68
2023/05/23 12:32:00;;;;;;;11.43;2.38;;;18.90;49.80;;;;;;5032921;28;20080;-69
2023/05/23 12:34:26;;;;;;;12.45;2.78;;;19.90;48.60;;;;;;5043453;28;20044;-68
2023/05/23 12:36:59;;;;;;;10.38;2.58;;;19.50;48.40;;;;;;5067801;28;20123;-69
2023/05/23 12:39:27;;;;;;;9.85;2.05;;;19.00;48.30;;;;;;5044982;28;20056;-69
2023/05/23 12:41:55;;;;;;;9.68;2.33;;;20.10;48.80;;;;;;5045233;28;20029;-70